sensor_id;sensor_type;location;lat;lon;timestamp;temperature;humidity
46364;DHT22;32071;49.036;9.344;2023-02-26T00:01:14;-1.70;99.90
46364;DHT22;32071;49.036;9.344;2023-02-26T00:03:40;-1.70;99.90
46364;DHT22;32071;49.036;9.344;2023-02-26T00:06:06;-1.70;99.90
46364;DHT22;32071;49.036;9.344;2023-02-26T00:08:32;-1.80;99.90
46364;DHT22;32071;49.036;9.344;2023-02-26T00:10:58;-1.80;99.90
46364;DHT22;32071;49.036;9.344;2023-02-26T00:13:27;-1.90;99.90
46364;DHT22;32071;49.036;9.344;2023-02-26T00:15:57;-1.90;99.90
46364;DHT22;32071;49.036;9.344;2023-02-26T00:18:23;-1.80;99.90
46364;DHT22;32071;49.036;9.344;2023-02-26T00:20:49;-1.80;99.90
46364;DHT22;32071;49.036;9.344;2023-02-26T00:23:15;-1.90;99.90
46364;DHT22;32071;49.036;9.344;2023-02-26T00:25:43;-2.00;99.90
46364;DHT22;32071;49.036;9.344;2023-02-26T00:28:09;-2.00;99.90
46364;DHT22;32071;49.036;9.344;2023-02-26T00:30:35;-2.00;99.90
46364;DHT22;32071;49.036;9.344;2023-02-26T00:33:01;-2.00;99.90
46364;DHT22;32071;49.036;9.344;2023-02-26T00:35:27;-2.10;99.90
46364;DHT22;32071;49.036;9.344;2023-02-26T00:37:58;-2.00;99.90
46364;DHT22;32071;49.036;9.344;2023-02-26T00:43:14;-2.20;99.90
46364;DHT22;32071;49.036;9.344;2023-02-26T00:45:50;-2.20;99.90
46364;DHT22;32071;49.036;9.344;2023-02-26T00:48:37;-2.30;99.90
46364;DHT22;32071;49.036;9.344;2023-02-26T00:51:32;-2.30;99.90
46364;DHT22;32071;49.036;9.344;2023-02-26T00:54:15;-2.30;99.90
46364;DHT22;32071;49.036;9.344;2023-02-26T00:56:42;-2.30;99.90
46364;DHT22;32071;49.036;9.344;2023-02-26T00:59:07;-2.30;99.90
46364;DHT22;32071;49.036;9.344;2023-02-26T01:01:33;-2.40;99.90
46364;DHT22;32071;49.036;9.344;2023-02-26T01:03:59;-2.40;99.90
46364;DHT22;32071;49.036;9.344;2023-02-26T01:06:27;-2.40;99.90
46364;DHT22;32071;49.036;9.344;2023-02-26T01:09:15;-2.40;99.90
46364;DHT22;32071;49.036;9.344;2023-02-26T01:11:42;-2.40;99.90
46364;DHT22;32071;49.036;9.344;2023-02-26T01:14:07;-2.50;99.90
46364;DHT22;32071;49.036;9.344;2023-02-26T01:19:23;-2.60;99.90
46364;DHT22;32071;49.036;9.344;2023-02-26T01:22:01;-2.60;99.90
46364;DHT22;32071;49.036;9.344;2023-02-26T01:24:29;-2.60;99.90
46364;DHT22;32071;49.036;9.344;2023-02-26T01:26:55;-2.60;99.90
46364;DHT22;32071;49.036;9.344;2023-02-26T01:29:21;-2.70;99.90
46364;DHT22;32071;49.036;9.344;2023-02-26T01:34:28;-2.70;99.90
46364;DHT22;32071;49.036;9.344;2023-02-26T01:37:27;-2.80;99.90
46364;DHT22;32071;49.036;9.344;2023-02-26T01:40:20;-2.90;99.90
46364;DHT22;32071;49.036;9.344;2023-02-26T01:42:56;-2.80;99.90
46364;DHT22;32071;49.036;9.344;2023-02-26T01:45:30;-2.90;99.90
46364;DHT22;32071;49.036;9.344;2023-02-26T01:48:11;-2.90;99.90
46364;DHT22;32071;49.036;9.344;2023-02-26T01:50:43;-3.00;99.90
46364;DHT22;32071;49.036;9.344;2023-02-26T01:55:42;-3.10;99.90
46364;DHT22;32071;49.036;9.344;2023-02-26T01:58:08;-3.10;99.90
46364;DHT22;32071;49.036;9.344;2023-02-26T02:00:34;-3.10;99.90
46364;DHT22;32071;49.036;9.344;2023-02-26T02:02:59;-3.10;99.90
46364;DHT22;32071;49.036;9.344;2023-02-26T02:05:32;-3.20;99.90
46364;DHT22;32071;49.036;9.344;2023-02-26T02:07:59;-3.20;99.90
46364;DHT22;32071;49.036;9.344;2023-02-26T02:10:26;-3.20;99.90
46364;DHT22;32071;49.036;9.344;2023-02-26T02:13:04;-3.20;99.90
46364;DHT22;32071;49.036;9.344;2023-02-26T02:15:45;-3.10;99.90
46364;DHT22;32071;49.036;9.344;2023-02-26T02:18:20;-3.10;99.90
46364;DHT22;32071;49.036;9.344;2023-02-26T02:24:07;-3.10;99.90
46364;DHT22;32071;49.036;9.344;2023-02-26T02:30:21;-3.10;99.90
46364;DHT22;32071;49.036;9.344;2023-02-26T02:33:04;-3.20;99.90
46364;DHT22;32071;49.036;9.344;2023-02-26T02:35:42;-3.10;99.90
46364;DHT22;32071;49.036;9.344;2023-02-26T02:38:46;-3.10;99.90
46364;DHT22;32071;49.036;9.344;2023-02-26T02:41:13;-3.10;99.90
46364;DHT22;32071;49.036;9.344;2023-02-26T02:43:41;-3.20;99.90
46364;DHT22;32071;49.036;9.344;2023-02-26T02:46:10;-3.20;99.90
46364;DHT22;32071;49.036;9.344;2023-02-26T02:48:40;-3.20;99.90
46364;DHT22;32071;49.036;9.344;2023-02-26T02:51:20;-3.20;99.90
46364;DHT22;32071;49.036;9.344;2023-02-26T02:54:01;-3.30;99.90
46364;DHT22;32071;49.036;9.344;2023-02-26T02:56:49;-3.30;99.90
46364;DHT22;32071;49.036;9.344;2023-02-26T02:59:23;-3.20;99.90
46364;DHT22;32071;49.036;9.344;2023-02-26T03:02:10;-3.30;99.90
46364;DHT22;32071;49.036;9.344;2023-02-26T03:04:38;-3.30;99.90
46364;DHT22;32071;49.036;9.344;2023-02-26T03:07:05;-3.30;99.90
46364;DHT22;32071;49.036;9.344;2023-02-26T03:09:32;-3.40;99.90
46364;DHT22;32071;49.036;9.344;2023-02-26T03:11:57;-3.50;99.90
46364;DHT22;32071;49.036;9.344;2023-02-26T03:14:23;-3.50;99.90
46364;DHT22;32071;49.036;9.344;2023-02-26T03:20:24;-3.60;99.90
46364;DHT22;32071;49.036;9.344;2023-02-26T03:23:03;-3.60;99.90
46364;DHT22;32071;49.036;9.344;2023-02-26T03:28:10;-3.70;99.90
46364;DHT22;32071;49.036;9.344;2023-02-26T03:30:56;-3.80;99.90
46364;DHT22;32071;49.036;9.344;2023-02-26T03:34:25;-3.80;99.90
46364;DHT22;32071;49.036;9.344;2023-02-26T03:37:01;-3.80;99.90
46364;DHT22;32071;49.036;9.344;2023-02-26T03:39:49;-3.90;99.90
46364;DHT22;32071;49.036;9.344;2023-02-26T03:42:26;-3.90;99.90
46364;DHT22;32071;49.036;9.344;2023-02-26T03:44:54;-3.90;99.90
46364;DHT22;32071;49.036;9.344;2023-02-26T03:47:21;-3.90;99.90
46364;DHT22;32071;49.036;9.344;2023-02-26T03:50:00;-3.90;99.90
46364;DHT22;32071;49.036;9.344;2023-02-26T03:52:29;-3.90;99.90
46364;DHT22;32071;49.036;9.344;2023-02-26T03:55:04;-3.90;99.90
46364;DHT22;32071;49.036;9.344;2023-02-26T03:57:30;-3.90;99.90
46364;DHT22;32071;49.036;9.344;2023-02-26T03:59:56;-3.90;99.90
46364;DHT22;32071;49.036;9.344;2023-02-26T04:02:28;-3.80;99.90
46364;DHT22;32071;49.036;9.344;2023-02-26T04:05:34;-3.80;99.90
46364;DHT22;32071;49.036;9.344;2023-02-26T04:08:02;-3.90;99.90
46364;DHT22;32071;49.036;9.344;2023-02-26T04:10:51;-3.90;99.90
46364;DHT22;32071;49.036;9.344;2023-02-26T04:13:17;-3.90;99.90
46364;DHT22;32071;49.036;9.344;2023-02-26T04:15:43;-3.80;99.90
46364;DHT22;32071;49.036;9.344;2023-02-26T04:18:10;-3.90;99.90
46364;DHT22;32071;49.036;9.344;2023-02-26T04:20:35;-3.90;99.90
46364;DHT22;32071;49.036;9.344;2023-02-26T04:23:01;-4.00;99.90
46364;DHT22;32071;49.036;9.344;2023-02-26T04:25:26;-4.10;99.90
46364;DHT22;32071;49.036;9.344;2023-02-26T04:27:52;-4.20;99.90
46364;DHT22;32071;49.036;9.344;2023-02-26T04:30:18;-4.20;99.90
46364;DHT22;32071;49.036;9.344;2023-02-26T04:32:43;-4.20;99.90
46364;DHT22;32071;49.036;9.344;2023-02-26T04:35:09;-4.20;99.90
46364;DHT22;32071;49.036;9.344;2023-02-26T04:37:34;-4.20;99.90
46364;DHT22;32071;49.036;9.344;2023-02-26T04:40:00;-4.20;99.90
46364;DHT22;32071;49.036;9.344;2023-02-26T04:42:25;-4.20;99.90
46364;DHT22;32071;49.036;9.344;2023-02-26T04:44:51;-4.20;99.90
46364;DHT22;32071;49.036;9.344;2023-02-26T04:47:17;-4.20;99.90
46364;DHT22;32071;49.036;9.344;2023-02-26T04:49:42;-4.20;99.90
46364;DHT22;32071;49.036;9.344;2023-02-26T04:52:08;-4.20;99.90
46364;DHT22;32071;49.036;9.344;2023-02-26T04:54:34;-4.30;99.90
46364;DHT22;32071;49.036;9.344;2023-02-26T04:57:00;-4.30;99.90
46364;DHT22;32071;49.036;9.344;2023-02-26T04:59:25;-4.30;99.90
46364;DHT22;32071;49.036;9.344;2023-02-26T05:01:51;-4.30;99.90
46364;DHT22;32071;49.036;9.344;2023-02-26T05:04:16;-4.30;99.90
46364;DHT22;32071;49.036;9.344;2023-02-26T05:06:42;-4.30;99.90
46364;DHT22;32071;49.036;9.344;2023-02-26T05:09:07;-4.40;99.90
46364;DHT22;32071;49.036;9.344;2023-02-26T05:11:33;-4.40;99.90
46364;DHT22;32071;49.036;9.344;2023-02-26T05:13:58;-4.40;99.90
46364;DHT22;32071;49.036;9.344;2023-02-26T05:16:24;-4.40;99.90
46364;DHT22;32071;49.036;9.344;2023-02-26T05:18:49;-4.40;99.90
46364;DHT22;32071;49.036;9.344;2023-02-26T05:21:15;-4.50;99.90
46364;DHT22;32071;49.036;9.344;2023-02-26T05:23:41;-4.50;99.90
46364;DHT22;32071;49.036;9.344;2023-02-26T05:26:06;-4.50;99.90
46364;DHT22;32071;49.036;9.344;2023-02-26T05:28:32;-4.50;99.90
46364;DHT22;32071;49.036;9.344;2023-02-26T05:30:58;-4.40;99.90
46364;DHT22;32071;49.036;9.344;2023-02-26T05:33:25;-4.30;99.90
46364;DHT22;32071;49.036;9.344;2023-02-26T05:35:52;-4.30;99.90
46364;DHT22;32071;49.036;9.344;2023-02-26T05:38:17;-4.40;99.90
46364;DHT22;32071;49.036;9.344;2023-02-26T05:40:43;-4.40;99.90
46364;DHT22;32071;49.036;9.344;2023-02-26T05:45:35;-4.70;99.90
46364;DHT22;32071;49.036;9.344;2023-02-26T05:48:00;-4.70;99.90
46364;DHT22;32071;49.036;9.344;2023-02-26T05:50:26;-4.70;99.90
46364;DHT22;32071;49.036;9.344;2023-02-26T05:52:52;-4.70;99.90
46364;DHT22;32071;49.036;9.344;2023-02-26T05:55:18;-4.60;99.90
46364;DHT22;32071;49.036;9.344;2023-02-26T05:57:43;-4.60;99.90
46364;DHT22;32071;49.036;9.344;2023-02-26T06:00:10;-4.60;99.90
46364;DHT22;32071;49.036;9.344;2023-02-26T06:02:36;-4.60;99.90
46364;DHT22;32071;49.036;9.344;2023-02-26T06:05:01;-4.60;99.90
46364;DHT22;32071;49.036;9.344;2023-02-26T06:07:27;-4.60;99.90
46364;DHT22;32071;49.036;9.344;2023-02-26T06:09:52;-4.70;99.90
46364;DHT22;32071;49.036;9.344;2023-02-26T06:12:18;-4.60;99.90
46364;DHT22;32071;49.036;9.344;2023-02-26T06:14:43;-4.60;99.90
46364;DHT22;32071;49.036;9.344;2023-02-26T06:17:09;-4.50;99.90
46364;DHT22;32071;49.036;9.344;2023-02-26T06:19:35;-4.50;99.90
46364;DHT22;32071;49.036;9.344;2023-02-26T06:22:00;-4.50;99.90
46364;DHT22;32071;49.036;9.344;2023-02-26T06:24:26;-4.40;99.90
46364;DHT22;32071;49.036;9.344;2023-02-26T06:26:52;-4.40;99.90
46364;DHT22;32071;49.036;9.344;2023-02-26T06:29:17;-4.30;99.90
46364;DHT22;32071;49.036;9.344;2023-02-26T06:31:45;-4.30;99.90
46364;DHT22;32071;49.036;9.344;2023-02-26T06:34:10;-4.30;99.90
46364;DHT22;32071;49.036;9.344;2023-02-26T06:36:36;-4.30;99.90
46364;DHT22;32071;49.036;9.344;2023-02-26T06:39:02;-4.20;99.90
46364;DHT22;32071;49.036;9.344;2023-02-26T06:41:27;-4.30;99.90
46364;DHT22;32071;49.036;9.344;2023-02-26T06:43:56;-4.30;99.90
46364;DHT22;32071;49.036;9.344;2023-02-26T06:46:21;-4.30;99.90
46364;DHT22;32071;49.036;9.344;2023-02-26T06:48:47;-4.30;99.90
46364;DHT22;32071;49.036;9.344;2023-02-26T06:51:12;-4.30;99.90
46364;DHT22;32071;49.036;9.344;2023-02-26T06:53:38;-4.30;99.90
46364;DHT22;32071;49.036;9.344;2023-02-26T06:56:04;-4.20;99.90
46364;DHT22;32071;49.036;9.344;2023-02-26T06:58:29;-4.20;99.90
46364;DHT22;32071;49.036;9.344;2023-02-26T07:00:55;-4.20;99.90
46364;DHT22;32071;49.036;9.344;2023-02-26T07:03:20;-4.10;99.90
46364;DHT22;32071;49.036;9.344;2023-02-26T07:05:46;-4.10;99.90
46364;DHT22;32071;49.036;9.344;2023-02-26T07:08:12;-4.00;99.90
46364;DHT22;32071;49.036;9.344;2023-02-26T07:10:38;-4.00;99.90
46364;DHT22;32071;49.036;9.344;2023-02-26T07:13:04;-3.90;99.90
46364;DHT22;32071;49.036;9.344;2023-02-26T07:15:30;-3.80;99.90
46364;DHT22;32071;49.036;9.344;2023-02-26T07:17:56;-3.70;99.90
46364;DHT22;32071;49.036;9.344;2023-02-26T07:20:21;-3.60;99.90
46364;DHT22;32071;49.036;9.344;2023-02-26T07:22:47;-3.50;99.90
46364;DHT22;32071;49.036;9.344;2023-02-26T07:25:14;-3.30;99.90
46364;DHT22;32071;49.036;9.344;2023-02-26T07:27:39;-3.20;99.90
46364;DHT22;32071;49.036;9.344;2023-02-26T07:30:06;-3.10;99.90
46364;DHT22;32071;49.036;9.344;2023-02-26T07:32:32;-3.10;99.90
46364;DHT22;32071;49.036;9.344;2023-02-26T07:34:58;-3.00;99.90
46364;DHT22;32071;49.036;9.344;2023-02-26T07:37:24;-2.90;99.90
46364;DHT22;32071;49.036;9.344;2023-02-26T07:39:50;-2.80;99.90
46364;DHT22;32071;49.036;9.344;2023-02-26T07:42:16;-2.60;99.90
46364;DHT22;32071;49.036;9.344;2023-02-26T07:44:42;-2.50;99.90
46364;DHT22;32071;49.036;9.344;2023-02-26T07:47:08;-2.40;99.90
46364;DHT22;32071;49.036;9.344;2023-02-26T07:49:34;-2.20;99.90
46364;DHT22;32071;49.036;9.344;2023-02-26T07:51:59;-2.10;99.90
46364;DHT22;32071;49.036;9.344;2023-02-26T07:54:25;-2.00;99.90
46364;DHT22;32071;49.036;9.344;2023-02-26T07:56:51;-1.90;99.90
46364;DHT22;32071;49.036;9.344;2023-02-26T07:59:16;-1.70;99.90
46364;DHT22;32071;49.036;9.344;2023-02-26T08:01:42;-1.50;99.90
46364;DHT22;32071;49.036;9.344;2023-02-26T08:04:08;-1.40;99.90
46364;DHT22;32071;49.036;9.344;2023-02-26T08:06:33;-1.20;99.90
46364;DHT22;32071;49.036;9.344;2023-02-26T08:09:00;-1.20;99.90
46364;DHT22;32071;49.036;9.344;2023-02-26T08:11:26;-1.20;99.90
46364;DHT22;32071;49.036;9.344;2023-02-26T08:13:51;-0.90;99.90
46364;DHT22;32071;49.036;9.344;2023-02-26T08:16:17;-0.70;99.90
46364;DHT22;32071;49.036;9.344;2023-02-26T08:18:42;-0.50;99.90
46364;DHT22;32071;49.036;9.344;2023-02-26T08:21:08;-0.30;99.90
46364;DHT22;32071;49.036;9.344;2023-02-26T08:23:35;-0.20;99.90
46364;DHT22;32071;49.036;9.344;2023-02-26T08:26:02;-0.30;99.90
46364;DHT22;32071;49.036;9.344;2023-02-26T08:28:28;-0.30;99.90
46364;DHT22;32071;49.036;9.344;2023-02-26T08:30:54;-0.30;99.90
46364;DHT22;32071;49.036;9.344;2023-02-26T08:33:20;-0.30;99.90
46364;DHT22;32071;49.036;9.344;2023-02-26T08:35:45;-0.20;99.90
46364;DHT22;32071;49.036;9.344;2023-02-26T08:38:11;-0.20;99.90
46364;DHT22;32071;49.036;9.344;2023-02-26T08:40:37;-0.20;99.90
46364;DHT22;32071;49.036;9.344;2023-02-26T08:43:02;-0.30;99.90
46364;DHT22;32071;49.036;9.344;2023-02-26T08:45:29;-0.20;99.90
46364;DHT22;32071;49.036;9.344;2023-02-26T08:47:54;-0.10;99.90
46364;DHT22;32071;49.036;9.344;2023-02-26T08:50:20;0.00;99.90
46364;DHT22;32071;49.036;9.344;2023-02-26T08:52:46;0.10;99.90
46364;DHT22;32071;49.036;9.344;2023-02-26T08:55:12;0.10;99.90
46364;DHT22;32071;49.036;9.344;2023-02-26T08:57:37;0.10;99.90
46364;DHT22;32071;49.036;9.344;2023-02-26T09:00:04;0.00;99.90
46364;DHT22;32071;49.036;9.344;2023-02-26T09:02:30;0.10;99.90
46364;DHT22;32071;49.036;9.344;2023-02-26T09:04:56;0.10;99.90
46364;DHT22;32071;49.036;9.344;2023-02-26T09:07:21;0.10;99.90
46364;DHT22;32071;49.036;9.344;2023-02-26T09:09:47;0.20;99.90
46364;DHT22;32071;49.036;9.344;2023-02-26T09:12:12;0.10;99.90
46364;DHT22;32071;49.036;9.344;2023-02-26T09:14:38;0.10;99.90
46364;DHT22;32071;49.036;9.344;2023-02-26T09:17:03;0.10;99.90
46364;DHT22;32071;49.036;9.344;2023-02-26T09:19:29;0.10;99.90
46364;DHT22;32071;49.036;9.344;2023-02-26T09:21:54;0.20;99.90
46364;DHT22;32071;49.036;9.344;2023-02-26T09:24:20;0.30;99.90
46364;DHT22;32071;49.036;9.344;2023-02-26T09:26:45;0.40;99.90
46364;DHT22;32071;49.036;9.344;2023-02-26T09:29:11;0.30;99.90
46364;DHT22;32071;49.036;9.344;2023-02-26T09:31:38;0.30;99.90
46364;DHT22;32071;49.036;9.344;2023-02-26T09:34:04;0.40;99.90
46364;DHT22;32071;49.036;9.344;2023-02-26T09:36:30;0.40;99.90
46364;DHT22;32071;49.036;9.344;2023-02-26T09:38:56;0.50;99.90
46364;DHT22;32071;49.036;9.344;2023-02-26T09:41:29;0.50;99.90
46364;DHT22;32071;49.036;9.344;2023-02-26T09:44:03;0.50;99.90
46364;DHT22;32071;49.036;9.344;2023-02-26T09:46:51;0.50;99.90
46364;DHT22;32071;49.036;9.344;2023-02-26T09:49:43;0.50;99.90
46364;DHT22;32071;49.036;9.344;2023-02-26T09:52:24;0.60;99.90
46364;DHT22;32071;49.036;9.344;2023-02-26T09:54:58;0.60;99.90
46364;DHT22;32071;49.036;9.344;2023-02-26T09:57:31;0.80;99.90
46364;DHT22;32071;49.036;9.344;2023-02-26T09:59:57;0.90;99.90
46364;DHT22;32071;49.036;9.344;2023-02-26T10:02:37;1.10;99.90
46364;DHT22;32071;49.036;9.344;2023-02-26T10:05:19;1.20;99.90
46364;DHT22;32071;49.036;9.344;2023-02-26T10:07:59;1.20;99.90
46364;DHT22;32071;49.036;9.344;2023-02-26T10:13:46;1.40;99.90
46364;DHT22;32071;49.036;9.344;2023-02-26T10:16:17;1.40;99.90
46364;DHT22;32071;49.036;9.344;2023-02-26T10:19:00;1.60;99.90
46364;DHT22;32071;49.036;9.344;2023-02-26T10:24:19;1.80;99.90
46364;DHT22;32071;49.036;9.344;2023-02-26T10:27:05;1.90;99.90
46364;DHT22;32071;49.036;9.344;2023-02-26T10:29:36;2.00;99.90
46364;DHT22;32071;49.036;9.344;2023-02-26T10:32:14;2.00;99.90
46364;DHT22;32071;49.036;9.344;2023-02-26T10:34:46;2.10;99.90
46364;DHT22;32071;49.036;9.344;2023-02-26T10:37:22;2.20;99.90
46364;DHT22;32071;49.036;9.344;2023-02-26T10:43:20;2.20;99.90
46364;DHT22;32071;49.036;9.344;2023-02-26T10:48:51;2.20;99.90
46364;DHT22;32071;49.036;9.344;2023-02-26T10:51:23;2.20;99.90
46364;DHT22;32071;49.036;9.344;2023-02-26T10:53:56;2.30;99.90
46364;DHT22;32071;49.036;9.344;2023-02-26T10:56:30;2.20;99.90
46364;DHT22;32071;49.036;9.344;2023-02-26T10:58:58;2.20;99.90
46364;DHT22;32071;49.036;9.344;2023-02-26T11:01:26;2.20;99.90
46364;DHT22;32071;49.036;9.344;2023-02-26T11:06:30;2.20;99.90
46364;DHT22;32071;49.036;9.344;2023-02-26T11:08:59;2.30;99.90
46364;DHT22;32071;49.036;9.344;2023-02-26T11:11:46;2.60;99.90
46364;DHT22;32071;49.036;9.344;2023-02-26T11:14:13;2.60;99.90
46364;DHT22;32071;49.036;9.344;2023-02-26T11:16:51;2.70;99.90
46364;DHT22;32071;49.036;9.344;2023-02-26T11:19:23;2.80;99.90
46364;DHT22;32071;49.036;9.344;2023-02-26T11:21:50;2.90;99.90
46364;DHT22;32071;49.036;9.344;2023-02-26T11:26:49;2.50;99.90
46364;DHT22;32071;49.036;9.344;2023-02-26T11:29:19;2.40;99.90
46364;DHT22;32071;49.036;9.344;2023-02-26T11:31:52;2.30;99.90
46364;DHT22;32071;49.036;9.344;2023-02-26T11:34:24;2.30;99.90
46364;DHT22;32071;49.036;9.344;2023-02-26T11:36:55;2.50;99.90
46364;DHT22;32071;49.036;9.344;2023-02-26T11:39:28;2.70;99.90
46364;DHT22;32071;49.036;9.344;2023-02-26T11:41:58;2.90;99.90
46364;DHT22;32071;49.036;9.344;2023-02-26T11:44:44;3.00;99.90
46364;DHT22;32071;49.036;9.344;2023-02-26T11:47:14;3.00;99.90
46364;DHT22;32071;49.036;9.344;2023-02-26T11:49:46;3.10;99.90
46364;DHT22;32071;49.036;9.344;2023-02-26T11:52:41;3.30;99.90
46364;DHT22;32071;49.036;9.344;2023-02-26T11:55:36;3.50;99.90
46364;DHT22;32071;49.036;9.344;2023-02-26T11:58:11;3.40;99.90
46364;DHT22;32071;49.036;9.344;2023-02-26T12:00:39;3.20;99.90
46364;DHT22;32071;49.036;9.344;2023-02-26T12:03:13;3.20;99.90
46364;DHT22;32071;49.036;9.344;2023-02-26T12:05:39;3.00;99.90
46364;DHT22;32071;49.036;9.344;2023-02-26T12:08:32;3.00;99.90
46364;DHT22;32071;49.036;9.344;2023-02-26T12:11:42;3.00;99.90
46364;DHT22;32071;49.036;9.344;2023-02-26T12:14:24;3.20;99.90
46364;DHT22;32071;49.036;9.344;2023-02-26T12:23:26;2.70;99.90
46364;DHT22;32071;49.036;9.344;2023-02-26T12:34:31;2.80;99.90
46364;DHT22;32071;49.036;9.344;2023-02-26T12:53:06;2.90;99.90
46364;DHT22;32071;49.036;9.344;2023-02-26T12:56:03;2.50;99.90
46364;DHT22;32071;49.036;9.344;2023-02-26T13:01:39;2.10;99.90
46364;DHT22;32071;49.036;9.344;2023-02-26T13:04:33;2.20;99.90
46364;DHT22;32071;49.036;9.344;2023-02-26T13:07:09;2.30;99.90
46364;DHT22;32071;49.036;9.344;2023-02-26T13:09:59;2.40;99.90
46364;DHT22;32071;49.036;9.344;2023-02-26T13:17:58;2.80;99.90
46364;DHT22;32071;49.036;9.344;2023-02-26T13:20:27;2.80;99.90
46364;DHT22;32071;49.036;9.344;2023-02-26T13:23:02;2.80;99.90
46364;DHT22;32071;49.036;9.344;2023-02-26T13:31:37;2.80;99.90
46364;DHT22;32071;49.036;9.344;2023-02-26T13:34:11;3.00;99.90
46364;DHT22;32071;49.036;9.344;2023-02-26T13:36:38;3.00;99.90
46364;DHT22;32071;49.036;9.344;2023-02-26T13:53:04;3.30;99.90
46364;DHT22;32071;49.036;9.344;2023-02-26T13:55:50;3.60;99.90
46364;DHT22;32071;49.036;9.344;2023-02-26T13:58:17;3.90;99.90
46364;DHT22;32071;49.036;9.344;2023-02-26T14:01:13;3.90;99.90
46364;DHT22;32071;49.036;9.344;2023-02-26T14:06:48;3.90;99.90
46364;DHT22;32071;49.036;9.344;2023-02-26T14:09:45;4.10;99.90
46364;DHT22;32071;49.036;9.344;2023-02-26T14:15:18;4.60;99.90
46364;DHT22;32071;49.036;9.344;2023-02-26T14:18:00;4.20;99.90
46364;DHT22;32071;49.036;9.344;2023-02-26T14:20:28;3.80;99.90
46364;DHT22;32071;49.036;9.344;2023-02-26T14:25:45;3.20;99.90
46364;DHT22;32071;49.036;9.344;2023-02-26T14:30:52;3.30;99.90
46364;DHT22;32071;49.036;9.344;2023-02-26T14:33:28;3.40;99.90
46364;DHT22;32071;49.036;9.344;2023-02-26T14:35:54;3.50;99.90
46364;DHT22;32071;49.036;9.344;2023-02-26T14:38:24;3.60;99.90
46364;DHT22;32071;49.036;9.344;2023-02-26T14:41:08;3.50;99.90
46364;DHT22;32071;49.036;9.344;2023-02-26T14:43:45;3.10;99.90
46364;DHT22;32071;49.036;9.344;2023-02-26T14:46:15;3.00;99.90
46364;DHT22;32071;49.036;9.344;2023-02-26T14:48:41;2.90;99.90
46364;DHT22;32071;49.036;9.344;2023-02-26T14:54:27;3.00;99.90
46364;DHT22;32071;49.036;9.344;2023-02-26T14:57:35;3.00;99.90
46364;DHT22;32071;49.036;9.344;2023-02-26T15:00:12;3.00;99.90
46364;DHT22;32071;49.036;9.344;2023-02-26T15:10:59;3.30;99.90
46364;DHT22;32071;49.036;9.344;2023-02-26T15:14:07;3.50;99.90
46364;DHT22;32071;49.036;9.344;2023-02-26T15:24:56;2.90;99.90
46364;DHT22;32071;49.036;9.344;2023-02-26T15:27:22;2.80;99.90
46364;DHT22;32071;49.036;9.344;2023-02-26T15:29:49;2.60;99.90
46364;DHT22;32071;49.036;9.344;2023-02-26T15:32:26;2.70;99.90
46364;DHT22;32071;49.036;9.344;2023-02-26T15:35:05;2.80;99.90
46364;DHT22;32071;49.036;9.344;2023-02-26T15:37:31;2.90;99.90
46364;DHT22;32071;49.036;9.344;2023-02-26T15:40:02;3.00;99.90
46364;DHT22;32071;49.036;9.344;2023-02-26T15:42:32;2.80;99.20
46364;DHT22;32071;49.036;9.344;2023-02-26T15:45:00;2.60;99.90
46364;DHT22;32071;49.036;9.344;2023-02-26T15:47:28;2.60;99.90
46364;DHT22;32071;49.036;9.344;2023-02-26T15:49:54;2.60;99.90
46364;DHT22;32071;49.036;9.344;2023-02-26T15:52:22;2.50;99.90
46364;DHT22;32071;49.036;9.344;2023-02-26T15:54:52;2.40;99.60
46364;DHT22;32071;49.036;9.344;2023-02-26T15:57:19;2.30;99.20
46364;DHT22;32071;49.036;9.344;2023-02-26T15:59:48;2.20;98.60
46364;DHT22;32071;49.036;9.344;2023-02-26T16:02:18;2.20;99.80
46364;DHT22;32071;49.036;9.344;2023-02-26T16:04:44;2.20;99.20
46364;DHT22;32071;49.036;9.344;2023-02-26T16:07:10;2.10;99.70
46364;DHT22;32071;49.036;9.344;2023-02-26T16:09:45;2.10;99.50
46364;DHT22;32071;49.036;9.344;2023-02-26T16:12:35;2.00;99.70
46364;DHT22;32071;49.036;9.344;2023-02-26T16:15:18;2.00;99.90
46364;DHT22;32071;49.036;9.344;2023-02-26T16:17:48;2.00;99.80
46364;DHT22;32071;49.036;9.344;2023-02-26T16:20:21;2.10;99.90
46364;DHT22;32071;49.036;9.344;2023-02-26T16:22:49;2.10;99.90
46364;DHT22;32071;49.036;9.344;2023-02-26T16:25:23;2.10;99.90
46364;DHT22;32071;49.036;9.344;2023-02-26T16:28:00;2.00;99.90
46364;DHT22;32071;49.036;9.344;2023-02-26T16:30:32;1.90;99.90
46364;DHT22;32071;49.036;9.344;2023-02-26T16:32:58;1.90;99.90
46364;DHT22;32071;49.036;9.344;2023-02-26T16:35:31;1.80;99.90
46364;DHT22;32071;49.036;9.344;2023-02-26T16:37:59;1.80;99.90
46364;DHT22;32071;49.036;9.344;2023-02-26T16:40:34;1.70;99.90
46364;DHT22;32071;49.036;9.344;2023-02-26T16:43:14;1.70;99.90
46364;DHT22;32071;49.036;9.344;2023-02-26T16:45:53;1.80;99.90
46364;DHT22;32071;49.036;9.344;2023-02-26T16:48:29;1.70;99.90
46364;DHT22;32071;49.036;9.344;2023-02-26T16:51:00;1.60;99.90
46364;DHT22;32071;49.036;9.344;2023-02-26T16:53:47;1.50;99.90
46364;DHT22;32071;49.036;9.344;2023-02-26T16:56:19;1.50;99.90
46364;DHT22;32071;49.036;9.344;2023-02-26T16:58:49;1.40;99.90
46364;DHT22;32071;49.036;9.344;2023-02-26T17:01:17;1.30;99.90
46364;DHT22;32071;49.036;9.344;2023-02-26T17:03:51;1.20;99.90
46364;DHT22;32071;49.036;9.344;2023-02-26T17:06:22;1.20;99.90
46364;DHT22;32071;49.036;9.344;2023-02-26T17:08:57;1.10;99.90
46364;DHT22;32071;49.036;9.344;2023-02-26T17:11:29;1.00;99.90
46364;DHT22;32071;49.036;9.344;2023-02-26T17:16:39;0.90;99.90
46364;DHT22;32071;49.036;9.344;2023-02-26T17:19:05;0.90;99.90
46364;DHT22;32071;49.036;9.344;2023-02-26T17:21:31;0.90;99.90
46364;DHT22;32071;49.036;9.344;2023-02-26T17:23:57;0.80;99.90
46364;DHT22;32071;49.036;9.344;2023-02-26T17:26:23;0.80;99.90
46364;DHT22;32071;49.036;9.344;2023-02-26T17:28:49;0.80;99.90
46364;DHT22;32071;49.036;9.344;2023-02-26T17:31:15;0.70;99.90
46364;DHT22;32071;49.036;9.344;2023-02-26T17:33:41;0.70;99.90
46364;DHT22;32071;49.036;9.344;2023-02-26T17:36:12;0.70;99.90
46364;DHT22;32071;49.036;9.344;2023-02-26T17:38:39;0.60;99.90
46364;DHT22;32071;49.036;9.344;2023-02-26T17:41:08;0.60;99.90
46364;DHT22;32071;49.036;9.344;2023-02-26T17:43:33;0.60;99.90
46364;DHT22;32071;49.036;9.344;2023-02-26T17:45:59;0.60;99.90
46364;DHT22;32071;49.036;9.344;2023-02-26T17:48:25;0.60;99.90
46364;DHT22;32071;49.036;9.344;2023-02-26T17:50:53;0.60;99.90
46364;DHT22;32071;49.036;9.344;2023-02-26T17:53:20;0.50;99.90
46364;DHT22;32071;49.036;9.344;2023-02-26T17:55:46;0.60;99.90
46364;DHT22;32071;49.036;9.344;2023-02-26T17:58:17;0.50;99.90
46364;DHT22;32071;49.036;9.344;2023-02-26T18:00:46;0.50;99.90
46364;DHT22;32071;49.036;9.344;2023-02-26T18:03:14;0.50;99.90
46364;DHT22;32071;49.036;9.344;2023-02-26T18:05:40;0.50;99.90
46364;DHT22;32071;49.036;9.344;2023-02-26T18:08:08;0.50;99.90
46364;DHT22;32071;49.036;9.344;2023-02-26T18:10:36;0.50;99.90
46364;DHT22;32071;49.036;9.344;2023-02-26T18:13:03;0.50;99.90
46364;DHT22;32071;49.036;9.344;2023-02-26T18:15:28;0.40;99.90
46364;DHT22;32071;49.036;9.344;2023-02-26T18:17:54;0.40;99.90